createdAt,value
2022-11-10T00:02:52.939Z,7.43
2022-11-10T00:05:58.094Z,12.25
2022-11-10T00:09:03.262Z,17.58
2022-11-10T00:12:08.334Z,9.95
2022-11-10T00:15:31.237Z,10.23
2022-11-10T00:18:36.148Z,5.55
2022-11-10T00:25:27.355Z,7.10
2022-11-10T00:28:32.572Z,8.07
2022-11-10T00:31:38.708Z,6.68
2022-11-10T00:34:43.478Z,18.17
2022-11-10T00:37:49.479Z,12.65
2022-11-10T00:40:54.085Z,9.00
2022-11-10T00:43:58.737Z,13.60
2022-11-10T00:47:03.489Z,21.10
2022-11-10T00:50:08.503Z,12.65
2022-11-10T00:53:12.863Z,10.98
2022-11-10T00:56:17.750Z,8.45
2022-11-10T00:59:22.339Z,13.13
2022-11-10T01:02:28.168Z,8.30
2022-11-10T01:05:35.828Z,29.92
2022-11-10T01:08:41.047Z,9.98
2022-11-10T01:11:45.774Z,9.63
2022-11-10T01:14:50.544Z,11.27
2022-11-10T01:17:56.716Z,6.68
2022-11-10T01:21:01.307Z,8.85
2022-11-10T01:24:06.005Z,6.45
2022-11-10T01:27:11.072Z,7.80
2022-11-10T01:30:15.793Z,6.10
2022-11-10T01:33:20.753Z,6.07
2022-11-10T01:36:25.898Z,9.88
2022-11-10T01:39:30.742Z,10.02
2022-11-10T01:42:42.683Z,7.40
2022-11-10T01:45:49.982Z,11.70
2022-11-10T01:48:57.088Z,10.93
2022-11-10T01:52:08.012Z,13.57
2022-11-10T01:55:12.736Z,14.60
2022-11-10T01:58:19.253Z,5.80
2022-11-10T02:01:24.758Z,21.20
2022-11-10T02:04:30.637Z,13.20
2022-11-10T02:07:36.097Z,5.18
2022-11-10T02:10:41.072Z,8.15
2022-11-10T02:13:46.008Z,5.47
2022-11-10T02:16:51.426Z,6.03
2022-11-10T02:19:58.691Z,8.20
2022-11-10T02:23:13.593Z,7.55
2022-11-10T02:26:20.898Z,9.43
2022-11-10T02:29:26.041Z,10.95
2022-11-10T02:32:30.958Z,27.70
2022-11-10T02:35:35.515Z,12.05
2022-11-10T02:38:40.160Z,28.92
2022-11-10T02:41:44.686Z,7.28
2022-11-10T02:44:49.710Z,5.70
2022-11-10T02:47:54.506Z,8.32
2022-11-10T02:50:59.047Z,11.23
2022-11-10T02:54:03.672Z,12.32
2022-11-10T02:57:08.721Z,10.27
2022-11-10T03:00:13.440Z,2.70
2022-11-10T03:03:17.898Z,16.58
2022-11-10T03:06:22.671Z,4.70
2022-11-10T03:09:27.370Z,19.48
2022-11-10T03:12:31.877Z,7.88
2022-11-10T03:15:36.847Z,7.70
2022-11-10T03:18:41.507Z,6.80
2022-11-10T03:21:46.217Z,11.30
2022-11-10T03:24:50.801Z,6.75
2022-11-10T03:27:55.429Z,17.02
2022-11-10T03:31:00.471Z,12.18
2022-11-10T03:34:05.365Z,5.85
2022-11-10T03:37:10.031Z,11.45
2022-11-10T03:40:14.953Z,4.35
2022-11-10T03:43:20.289Z,10.52
2022-11-10T03:46:24.890Z,11.35
2022-11-10T03:49:30.583Z,7.50
2022-11-10T03:52:35.204Z,6.97
2022-11-10T03:55:39.947Z,10.13
2022-11-10T03:58:44.583Z,4.57
2022-11-10T04:01:49.239Z,17.83
2022-11-10T04:05:12.477Z,8.55
2022-11-10T04:08:43.837Z,9.43
2022-11-10T04:12:07.005Z,8.52
2022-11-10T04:18:34.377Z,8.30
2022-11-10T04:21:39.314Z,5.53
2022-11-10T04:24:43.931Z,9.05
2022-11-10T04:27:48.426Z,5.38
2022-11-10T04:30:53.108Z,15.27
2022-11-10T04:33:58.301Z,6.45
2022-11-10T04:37:03.140Z,5.95
2022-11-10T04:40:08.457Z,17.13
2022-11-10T04:43:13.621Z,10.65
2022-11-10T04:46:27.464Z,13.43
2022-11-10T04:49:32.041Z,10.60
2022-11-10T04:52:36.633Z,10.57
2022-11-10T04:55:42.497Z,5.85
2022-11-10T04:58:47.223Z,10.25
2022-11-10T05:01:51.987Z,7.13
2022-11-10T05:04:56.691Z,14.35
2022-11-10T05:08:02.658Z,19.60
2022-11-10T05:11:07.351Z,16.05
2022-11-10T05:14:12.084Z,6.82
2022-11-10T05:17:16.579Z,33.60
2022-11-10T05:20:23.542Z,8.57
2022-11-10T05:23:40.477Z,25.48
2022-11-10T05:26:45.404Z,16.83
2022-11-10T05:29:50.090Z,17.05
2022-11-10T05:32:54.820Z,9.60
2022-11-10T05:35:59.735Z,12.63
2022-11-10T05:39:04.708Z,9.85
2022-11-10T05:42:09.393Z,9.00
2022-11-10T05:45:14.181Z,10.13
2022-11-10T05:48:18.748Z,14.20
2022-11-10T05:51:23.041Z,20.20
2022-11-10T05:54:27.405Z,36.70
2022-11-10T05:57:33.287Z,14.35
2022-11-10T06:00:38.072Z,15.80
2022-11-10T06:03:43.030Z,22.40
2022-11-10T06:06:47.767Z,23.48
2022-11-10T06:09:52.292Z,19.75
2022-11-10T06:12:56.996Z,16.45
2022-11-10T06:16:01.858Z,23.05
2022-11-10T06:19:06.257Z,43.53
2022-11-10T06:22:11.194Z,31.08
2022-11-10T06:25:15.866Z,62.45
2022-11-10T06:28:20.553Z,41.88
2022-11-10T06:31:25.161Z,38.97
2022-11-10T06:34:29.981Z,18.75
2022-11-10T06:37:34.777Z,23.15
2022-11-10T06:40:39.337Z,59.75
2022-11-10T06:44:02.486Z,26.88
2022-11-10T06:47:07.209Z,21.25
2022-11-10T06:50:11.712Z,56.75
2022-11-10T06:53:19.046Z,24.83
2022-11-10T06:56:25.722Z,28.77
2022-11-10T06:59:30.457Z,40.45
2022-11-10T07:02:35.130Z,26.52
2022-11-10T07:05:40.116Z,96.10
2022-11-10T07:08:45.108Z,89.32
2022-11-10T07:11:49.856Z,55.13
2022-11-10T07:14:54.513Z,91.10
2022-11-10T07:17:59.413Z,27.92
2022-11-10T07:21:05.398Z,78.95
2022-11-10T07:24:10.060Z,61.08
2022-11-10T07:27:14.705Z,106.03
2022-11-10T07:30:19.347Z,70.05
2022-11-10T07:33:24.376Z,72.25
2022-11-10T07:36:29.630Z,36.30
2022-11-10T07:39:34.708Z,51.67
2022-11-10T07:42:40.273Z,43.03
2022-11-10T07:45:45.135Z,27.42
2022-11-10T07:48:49.988Z,44.28
2022-11-10T07:51:54.565Z,43.10
2022-11-10T07:54:59.379Z,38.88
2022-11-10T07:58:04.164Z,45.85
2022-11-10T08:01:09.840Z,44.55
2022-11-10T08:04:14.847Z,39.70
2022-11-10T08:07:19.549Z,38.70
2022-11-10T08:10:24.139Z,62.47
2022-11-10T08:13:29.034Z,52.85
2022-11-10T08:16:34.157Z,45.17
2022-11-10T08:19:38.880Z,44.13
2022-11-10T08:22:43.424Z,40.20
2022-11-10T08:25:48.086Z,47.88
2022-11-10T08:28:52.795Z,44.05
2022-11-10T08:31:57.425Z,54.72
2022-11-10T08:35:02.131Z,42.00
2022-11-10T08:38:09.567Z,49.90
2022-11-10T08:41:14.316Z,45.75
2022-11-10T08:44:21.074Z,70.88
2022-11-10T08:47:25.374Z,51.17
2022-11-10T08:50:29.934Z,38.83
2022-11-10T08:53:37.984Z,48.17
2022-11-10T08:56:42.504Z,41.40
2022-11-10T08:59:47.051Z,59.65
2022-11-10T09:02:53.527Z,61.03
2022-11-10T09:06:01.023Z,40.58
2022-11-10T09:09:05.940Z,45.10
2022-11-10T09:12:10.357Z,34.35
2022-11-10T09:15:15.201Z,29.15
2022-11-10T09:18:19.684Z,28.05
2022-11-10T09:21:24.663Z,32.22
2022-11-10T09:24:31.465Z,32.65
2022-11-10T09:27:40.190Z,36.25
2022-11-10T09:30:49.091Z,28.85
2022-11-10T09:33:53.933Z,38.17
2022-11-10T09:36:58.739Z,36.50
2022-11-10T09:40:03.131Z,25.17
2022-11-10T09:43:12.750Z,31.48
2022-11-10T09:46:20.484Z,38.90
2022-11-10T09:49:39.544Z,44.70
2022-11-10T09:52:44.862Z,34.42
2022-11-10T09:55:50.180Z,29.70
2022-11-10T09:58:54.651Z,27.77
2022-11-10T10:01:59.441Z,25.35
2022-11-10T10:05:25.653Z,25.25
2022-11-10T10:08:59.266Z,24.90
2022-11-10T10:12:24.518Z,23.58
2022-11-10T10:15:32.462Z,21.83
2022-11-10T10:18:45.192Z,31.60
2022-11-10T10:22:02.825Z,26.58
2022-11-10T10:25:11.920Z,21.58
2022-11-10T10:28:16.715Z,26.17
2022-11-10T10:31:25.304Z,20.65
2022-11-10T10:34:34.721Z,24.92
2022-11-10T10:37:44.449Z,24.92
2022-11-10T10:40:52.123Z,21.55
2022-11-10T10:43:58.924Z,24.52
2022-11-10T10:47:04.995Z,19.63
2022-11-10T10:50:23.441Z,19.90
2022-11-10T10:53:28.539Z,21.80
2022-11-10T10:56:33.596Z,24.80
2022-11-10T10:59:38.233Z,21.55
2022-11-10T11:02:43.193Z,24.60
2022-11-10T11:06:25.379Z,24.17
2022-11-10T11:09:35.094Z,17.30
2022-11-10T11:12:39.761Z,24.27
2022-11-10T11:15:56.882Z,27.75
2022-11-10T11:19:01.890Z,22.95
2022-11-10T11:22:15.425Z,38.42
2022-11-10T11:25:27.961Z,25.95
2022-11-10T11:28:45.298Z,23.30
2022-11-10T11:32:08.909Z,21.17
2022-11-10T11:35:39.848Z,32.38
2022-11-10T11:39:14.713Z,34.05
2022-11-10T11:42:34.343Z,20.20
2022-11-10T11:46:08.779Z,22.67
2022-11-10T11:49:27.367Z,33.72
2022-11-10T11:52:57.986Z,22.33
2022-11-10T11:56:02.961Z,23.90
2022-11-10T11:59:13.840Z,30.10
2022-11-10T12:02:38.853Z,27.80
2022-11-10T12:06:21.198Z,25.08
2022-11-10T12:09:48.616Z,28.00
2022-11-10T12:13:14.744Z,30.48
2022-11-10T12:16:37.495Z,34.92
2022-11-10T12:23:44.942Z,24.25
2022-11-10T12:26:50.080Z,21.50
2022-11-10T12:30:04.539Z,31.13
2022-11-10T12:33:30.808Z,38.97
2022-11-10T12:36:35.898Z,63.55
2022-11-10T12:39:49.448Z,25.58
2022-11-10T12:43:01.649Z,23.08
2022-11-10T12:46:08.858Z,19.67
2022-11-10T12:49:26.747Z,21.95
2022-11-10T12:52:38.488Z,25.52
2022-11-10T12:55:45.991Z,19.05
2022-11-10T12:59:11.143Z,18.95
2022-11-10T13:02:19.188Z,23.85
2022-11-10T13:05:26.881Z,22.67
2022-11-10T13:08:37.301Z,19.33
2022-11-10T13:11:42.596Z,17.20
2022-11-10T13:14:48.195Z,21.27
2022-11-10T13:17:54.315Z,23.17
2022-11-10T13:21:00.047Z,22.90
2022-11-10T13:24:07.633Z,31.85
2022-11-10T13:27:13.685Z,21.45
2022-11-10T13:30:37.292Z,23.25
2022-11-10T13:34:02.644Z,24.38
2022-11-10T13:37:26.880Z,27.77
2022-11-10T13:40:34.232Z,23.50
2022-11-10T13:43:47.627Z,24.13
2022-11-10T13:47:09.598Z,22.52
2022-11-10T13:50:19.720Z,22.52
2022-11-10T13:53:30.280Z,27.10
2022-11-10T13:56:54.037Z,32.55
2022-11-10T14:00:00.974Z,24.98
2022-11-10T14:03:07.526Z,49.08
2022-11-10T14:06:15.382Z,57.95
2022-11-10T14:09:33.524Z,61.50
2022-11-10T14:12:46.676Z,127.60
2022-11-10T14:15:54.306Z,62.30
2022-11-10T14:19:04.543Z,34.25
2022-11-10T14:22:16.159Z,30.17
2022-11-10T14:25:25.600Z,34.20
2022-11-10T14:28:34.226Z,38.20
2022-11-10T14:31:38.948Z,67.47
2022-11-10T14:34:48.164Z,68.90
2022-11-10T14:37:57.221Z,62.83
2022-11-10T14:41:02.900Z,53.83
2022-11-10T14:44:13.428Z,48.15
2022-11-10T14:47:24.245Z,66.47
2022-11-10T14:50:32.125Z,64.43
2022-11-10T14:53:38.489Z,89.68
2022-11-10T14:56:44.020Z,83.53
2022-11-10T14:59:48.877Z,88.97
2022-11-10T15:02:54.589Z,74.05
2022-11-10T15:05:59.456Z,62.75
2022-11-10T15:09:43.103Z,56.97
2022-11-10T15:13:02.682Z,52.33
2022-11-10T15:16:22.292Z,47.45
2022-11-10T15:19:30.844Z,66.63
2022-11-10T15:22:35.770Z,53.90
2022-11-10T15:25:41.237Z,53.90
2022-11-10T15:28:46.507Z,43.45
2022-11-10T15:31:51.967Z,35.35
2022-11-10T15:35:07.021Z,47.67
2022-11-10T15:38:19.573Z,33.55
2022-11-10T15:41:27.574Z,45.13
2022-11-10T15:44:32.450Z,44.05
2022-11-10T15:47:36.977Z,51.95
2022-11-10T15:50:43.235Z,44.42
2022-11-10T15:53:48.317Z,38.05
2022-11-10T15:56:52.798Z,42.30
2022-11-10T15:59:57.089Z,86.72
2022-11-10T16:03:01.917Z,91.40
2022-11-10T16:06:06.963Z,98.38
2022-11-10T16:09:13.230Z,66.07
2022-11-10T16:12:24.545Z,63.40
2022-11-10T16:15:29.549Z,87.80
2022-11-10T16:18:34.242Z,128.50
2022-11-10T16:21:39.205Z,132.73
2022-11-10T16:24:52.689Z,147.48
2022-11-10T16:27:58.038Z,135.48
2022-11-10T16:31:08.754Z,124.00
2022-11-10T16:34:14.943Z,119.28
2022-11-10T16:37:19.942Z,109.15
2022-11-10T16:40:28.455Z,88.63
2022-11-10T16:43:32.837Z,107.00
2022-11-10T16:46:38.191Z,84.95
2022-11-10T16:49:44.340Z,89.40
2022-11-10T16:52:49.046Z,102.60
2022-11-10T16:55:53.601Z,77.57
2022-11-10T16:58:58.140Z,81.55
2022-11-10T17:02:03.092Z,85.32
2022-11-10T17:05:14.638Z,65.28
2022-11-10T17:08:27.964Z,36.70
2022-11-10T17:11:32.649Z,67.13
2022-11-10T17:14:37.158Z,75.85
2022-11-10T17:17:43.861Z,60.00
2022-11-10T17:20:52.227Z,42.53
2022-11-10T17:23:57.252Z,103.72
2022-11-10T17:27:02.787Z,105.32
2022-11-10T17:30:09.395Z,108.18
2022-11-10T17:33:14.076Z,95.97
2022-11-10T17:36:22.619Z,91.80
2022-11-10T17:39:27.556Z,110.90
2022-11-10T17:46:46.257Z,62.90
2022-11-10T17:49:50.774Z,125.22
2022-11-10T17:52:55.516Z,93.65
2022-11-10T17:56:00.280Z,162.20
2022-11-10T17:59:05.338Z,152.43
2022-11-10T18:02:11.562Z,154.30
2022-11-10T18:05:17.347Z,78.63
2022-11-10T18:08:21.512Z,109.55
2022-11-10T18:11:26.147Z,99.22
2022-11-10T18:14:34.030Z,108.80
2022-11-10T18:17:38.649Z,71.20
2022-11-10T18:20:43.799Z,60.85
2022-11-10T18:23:49.306Z,91.22
2022-11-10T18:26:54.206Z,127.85
2022-11-10T18:29:58.756Z,85.18
2022-11-10T18:33:03.579Z,63.63
2022-11-10T18:36:09.024Z,73.65
2022-11-10T18:39:14.571Z,64.47
2022-11-10T18:42:19.713Z,42.90
2022-11-10T18:45:25.005Z,85.10
2022-11-10T18:48:34.698Z,97.85
2022-11-10T18:51:42.454Z,36.75
2022-11-10T18:54:47.165Z,58.05
2022-11-10T18:57:51.775Z,100.25
2022-11-10T19:01:06.829Z,60.47
2022-11-10T19:04:12.323Z,77.80
2022-11-10T19:07:17.289Z,44.85
2022-11-10T19:10:21.955Z,46.10
2022-11-10T19:13:26.663Z,84.80
2022-11-10T19:16:31.478Z,54.25
2022-11-10T19:19:36.419Z,116.88
2022-11-10T19:22:41.615Z,62.95
2022-11-10T19:25:46.275Z,95.35
2022-11-10T19:28:53.383Z,47.55
2022-11-10T19:31:57.856Z,100.00
2022-11-10T19:35:07.231Z,61.28
2022-11-10T19:38:12.309Z,167.10
2022-11-10T19:41:32.248Z,64.22
2022-11-10T19:44:45.884Z,89.38
2022-11-10T19:54:58.830Z,33.80
2022-11-10T19:58:04.073Z,110.13
2022-11-10T20:01:14.841Z,51.88
2022-11-10T20:04:19.981Z,93.30
2022-11-10T20:07:43.259Z,43.10
2022-11-10T20:10:48.527Z,32.38
2022-11-10T20:13:55.197Z,80.22
2022-11-10T20:16:59.741Z,27.73
2022-11-10T20:20:07.013Z,43.67
2022-11-10T20:23:12.090Z,78.95
2022-11-10T20:26:17.745Z,41.78
2022-11-10T20:29:22.511Z,82.95
2022-11-10T20:32:30.946Z,64.03
2022-11-10T20:35:40.419Z,68.75
2022-11-10T20:38:45.473Z,26.65
2022-11-10T20:41:52.797Z,72.43
2022-11-10T20:44:57.576Z,37.97
2022-11-10T20:48:02.130Z,27.88
2022-11-10T20:51:10.776Z,102.82
2022-11-10T20:54:17.489Z,67.70
2022-11-10T20:57:22.669Z,84.38
2022-11-10T21:00:27.653Z,61.00
2022-11-10T21:03:32.811Z,18.08
2022-11-10T21:06:38.169Z,36.97
2022-11-10T21:09:42.893Z,43.42
2022-11-10T21:12:50.630Z,54.92
2022-11-10T21:15:57.461Z,40.60
2022-11-10T21:19:02.545Z,20.83
2022-11-10T21:22:07.936Z,20.10
2022-11-10T21:25:13.692Z,19.13
2022-11-10T21:28:18.703Z,20.13
2022-11-10T21:31:23.784Z,56.72
2022-11-10T21:34:28.294Z,33.75
2022-11-10T21:37:36.225Z,58.72
2022-11-10T21:40:42.395Z,30.55
2022-11-10T21:43:46.773Z,57.85
2022-11-10T21:46:51.429Z,36.65
2022-11-10T21:49:56.278Z,45.13
2022-11-10T21:53:01.187Z,69.55
2022-11-10T21:56:07.018Z,51.10
2022-11-10T21:59:11.546Z,50.97
2022-11-10T22:02:16.515Z,51.20
2022-11-10T22:05:21.301Z,17.30
2022-11-10T22:08:26.547Z,67.30
2022-11-10T22:11:49.946Z,59.33
2022-11-10T22:15:13.432Z,64.65
2022-11-10T22:18:37.086Z,51.22
2022-11-10T22:21:41.897Z,14.10
2022-11-10T22:24:47.135Z,46.17
2022-11-10T22:27:51.686Z,44.70
2022-11-10T22:30:56.376Z,10.25
2022-11-10T22:34:20.610Z,44.85
2022-11-10T22:37:33.274Z,51.17
2022-11-10T22:40:56.706Z,55.55
2022-11-10T22:44:05.448Z,61.13
2022-11-10T22:50:30.859Z,34.03
2022-11-10T22:53:38.703Z,66.70
2022-11-10T22:56:43.903Z,56.05
2022-11-10T22:59:49.003Z,23.25
2022-11-10T23:02:53.564Z,55.80
2022-11-10T23:05:58.001Z,69.90
2022-11-10T23:09:02.995Z,66.53
2022-11-10T23:12:07.673Z,78.55
2022-11-10T23:15:12.317Z,82.65
2022-11-10T23:18:16.955Z,76.97
2022-11-10T23:21:22.900Z,21.17
2022-11-10T23:24:27.925Z,70.47
2022-11-10T23:27:35.715Z,78.22
2022-11-10T23:30:40.055Z,41.30
2022-11-10T23:33:45.579Z,78.25
2022-11-10T23:36:50.708Z,82.57
2022-11-10T23:39:55.176Z,27.98
2022-11-10T23:42:59.784Z,82.00
2022-11-10T23:46:07.838Z,19.35
2022-11-10T23:49:12.898Z,66.75
2022-11-10T23:52:17.768Z,32.42
2022-11-10T23:55:22.801Z,66.65
2022-11-10T23:58:28.400Z,57.97
